Time;durP1;ratioP1;P1;durP2;ratioP2;P2;SDS_P1;SDS_P2;PMS_P1;PMS_P2;Temp;Humidity;BMP_temperature;BMP_pressure;BME280_temperature;BME280_humidity;BME280_pressure;Samples;Min_cycle;Max_cycle;Signal;HPM_P1;HPM_P2
2021/12/19 00:10:30;;;;;;;7.60;4.63;;;;;;;0.96;79.37;95655.72;4945489;29;21031;-71
2021/12/19 00:12:58;;;;;;;4.93;4.20;;;;;;;0.96;80.22;95668.22;4945041;29;20202;-70
2021/12/19 00:15:25;;;;;;;4.40;4.00;;;;;;;1.02;79.49;95655.75;4944992;29;20218;-74
2021/12/19 00:17:52;;;;;;;4.20;3.90;;;;;;;0.76;80.85;95662.94;4944890;29;20662;-74
2021/12/19 00:20:20;;;;;;;4.67;4.17;;;;;;;0.64;80.57;95668.63;4943429;29;20894;-72
2021/12/19 00:22:47;;;;;;;4.80;3.93;;;;;;;0.83;80.56;95651.34;4942612;29;20230;-75
2021/12/19 00:25:14;;;;;;;5.20;4.13;;;;;;;0.57;81.89;95661.84;4942965;29;20756;-70
2021/12/19 00:27:41;;;;;;;4.40;4.10;;;;;;;0.46;82.59;95658.38;4943367;28;20278;-72
2021/12/19 00:30:08;;;;;;;4.77;4.40;;;;;;;0.56;82.23;95650.16;4943075;29;20204;-69
2021/12/19 00:32:35;;;;;;;5.43;4.93;;;;;;;0.46;82.65;95650.84;4942990;29;20284;-74
2021/12/19 00:35:01;;;;;;;4.40;4.00;;;;;;;0.40;82.78;95648.25;4943499;29;20206;-75
2021/12/19 00:37:30;;;;;;;6.03;4.50;;;;;;;0.10;84.39;95626.13;4944029;29;20634;-71
2021/12/19 00:39:56;;;;;;;5.07;4.67;;;;;;;0.18;84.87;95644.59;4944487;29;20216;-70
2021/12/19 00:42:32;;;;;;;5.33;4.93;;;;;;;0.40;83.62;95655.75;4944621;29;20666;-71
2021/12/19 00:45:05;;;;;;;5.30;4.80;;;;;;;0.42;83.22;95656.63;4943937;28;20206;-70
2021/12/19 00:47:33;;;;;;;5.13;4.83;;;;;;;0.36;83.69;95661.53;4944287;29;20737;-71
2021/12/19 00:50:00;;;;;;;7.07;5.60;;;;;;;0.54;83.21;95651.78;4944722;29;20305;-71
2021/12/19 00:52:26;;;;;;;5.90;5.27;;;;;;;0.51;82.90;95650.91;4944861;29;20211;-69
2021/12/19 00:54:55;;;;;;;5.93;5.43;;;;;;;0.42;83.84;95646.63;4944166;29;20569;-70
2021/12/19 00:57:21;;;;;;;6.30;5.80;;;;;;;0.42;84.21;95645.78;4944318;29;20202;-71
2021/12/19 00:59:48;;;;;;;6.47;5.77;;;;;;;0.44;83.96;95640.00;4944412;29;20294;-68
2021/12/19 01:02:15;;;;;;;6.67;5.80;;;;;;;0.22;84.65;95631.34;4944448;29;20210;-71
2021/12/19 01:04:41;;;;;;;5.97;5.33;;;;;;;0.18;85.82;95626.25;4944630;29;20218;-71
2021/12/19 01:07:08;;;;;;;6.53;5.93;;;;;;;0.29;84.78;95629.75;4944076;29;20667;-72
2021/12/19 01:09:35;;;;;;;6.93;5.90;;;;;;;0.08;85.58;95619.44;4944286;28;20269;-72
2021/12/19 01:12:05;;;;;;;6.17;5.53;;;;;;;0.07;85.85;95618.59;4944511;29;20707;-73
2021/12/19 01:14:32;;;;;;;6.27;5.73;;;;;;;0.02;86.39;95621.81;4944214;29;20273;-71
2021/12/19 01:16:58;;;;;;;8.73;5.57;;;;;;;0.21;85.40;95631.31;4943611;29;20277;-70
2021/12/19 01:19:25;;;;;;;6.23;5.60;;;;;;;0.26;85.46;95619.69;4943818;29;20207;-73
2021/12/19 01:21:52;;;;;;;6.83;6.07;;;;;;;0.39;84.94;95620.72;4944055;28;20222;-72
2021/12/19 01:24:18;;;;;;;9.00;6.53;;;;;;;0.39;85.26;95605.75;4944040;29;20284;-75
2021/12/19 01:26:45;;;;;;;6.27;5.67;;;;;;;0.38;84.70;95604.91;4943655;29;20234;-72
2021/12/19 01:29:14;;;;;;;6.17;5.67;;;;;;;0.11;86.12;95600.34;4943491;29;20210;-71
2021/12/19 01:31:41;;;;;;;6.73;6.13;;;;;;;-0.01;85.58;95596.00;4943938;29;21561;-69
2021/12/19 01:34:12;;;;;;;6.53;6.10;;;;;;;0.11;85.24;95594.50;4943775;29;20214;-74
2021/12/19 01:36:39;;;;;;;6.07;5.57;;;;;;;0.18;86.51;95601.28;4944201;28;20234;-73
2021/12/19 01:39:06;;;;;;;9.97;5.67;;;;;;;0.30;85.63;95592.28;4943550;29;20206;-73
2021/12/19 01:41:33;;;;;;;5.83;5.30;;;;;;;0.16;84.92;95592.91;4943810;29;20218;-72
2021/12/19 01:44:00;;;;;;;6.83;6.13;;;;;;;0.04;85.93;95587.72;4942318;29;20210;-69
2021/12/19 01:46:28;;;;;;;6.53;5.90;;;;;;;0.20;86.05;95588.00;4943374;29;20250;-72
2021/12/19 01:48:55;;;;;;;6.90;5.97;;;;;;;0.25;85.37;95578.03;4943288;29;20808;-72
2021/12/19 01:51:21;;;;;;;6.30;5.80;;;;;;;0.34;84.47;95588.16;4943615;29;20211;-71
2021/12/19 01:53:49;;;;;;;5.53;5.03;;;;;;;0.45;83.76;95586.66;4943032;29;20241;-74
2021/12/19 01:56:16;;;;;;;6.17;5.23;;;;;;;0.51;83.87;95584.22;4943104;28;20221;-71
2021/12/19 01:58:45;;;;;;;6.90;5.70;;;;;;;0.34;84.03;95573.16;4943344;29;20214;-72
2021/12/19 02:01:12;;;;;;;5.20;4.80;;;;;;;0.42;84.18;95566.63;4943139;29;20217;-70
2021/12/19 02:03:40;;;;;;;6.87;6.20;;;;;;;0.44;83.65;95564.97;4942761;29;20211;-70
2021/12/19 02:06:07;;;;;;;5.90;5.40;;;;;;;0.63;82.91;95571.06;4941461;29;20198;-71
2021/12/19 02:08:34;;;;;;;5.87;5.37;;;;;;;0.70;82.31;95561.97;4941246;29;20288;-70
2021/12/19 02:11:01;;;;;;;4.93;4.53;;;;;;;0.66;82.58;95571.09;4941205;29;21736;-70
2021/12/19 02:13:28;;;;;;;7.40;6.00;;;;;;;0.53;83.58;95572.59;4941126;29;20202;-70
2021/12/19 02:15:55;;;;;;;5.93;5.50;;;;;;;0.71;83.47;95562.00;4941360;29;20261;-68
2021/12/19 02:18:22;;;;;;;6.37;5.73;;;;;;;0.71;83.71;95569.50;4941354;29;20210;-71
2021/12/19 02:20:52;;;;;;;6.47;5.97;;;;;;;0.83;82.56;95559.63;4942858;29;20201;-71
2021/12/19 02:23:20;;;;;;;6.20;5.57;;;;;;;1.06;82.17;95566.53;4942485;29;20300;-70
2021/12/19 02:25:48;;;;;;;6.43;5.77;;;;;;;1.20;82.15;95560.03;4942711;29;20716;-69
2021/12/19 02:28:15;;;;;;;6.37;5.87;;;;;;;1.32;81.40;95553.47;4942914;29;21485;-70
2021/12/19 02:30:42;;;;;;;6.23;5.70;;;;;;;1.12;81.16;95557.44;4943031;29;20266;-71
2021/12/19 02:33:12;;;;;;;6.17;5.73;;;;;;;0.91;83.15;95562.22;4942678;29;20666;-73
2021/12/19 02:35:41;;;;;;;7.23;6.53;;;;;;;0.96;82.74;95558.13;4942941;29;20210;-72
2021/12/19 02:49:23;;;;;;;6.10;5.50;;;;;;;0.99;82.94;95545.63;4942734;29;20244;-72
2021/12/19 02:51:52;;;;;;;6.20;5.70;;;;;;;1.00;82.18;95544.78;4942440;29;20712;-72
2021/12/19 02:54:20;;;;;;;6.50;5.30;;;;;;;0.98;82.43;95546.47;4942389;29;20194;-69
2021/12/19 02:56:47;;;;;;;6.43;5.53;;;;;;;0.97;82.14;95540.63;4942288;29;20206;-69
2021/12/19 02:59:15;;;;;;;6.53;6.03;;;;;;;1.00;82.70;95543.13;4942539;29;20199;-72
2021/12/19 03:01:44;;;;;;;6.30;5.90;;;;;;;1.04;81.80;95534.00;4942793;29;20214;-71
2021/12/19 03:04:11;;;;;;;5.93;5.43;;;;;;;1.04;81.86;95541.50;4942427;29;20269;-74
2021/12/19 03:06:43;;;;;;;6.97;6.27;;;;;;;0.82;82.77;95529.59;4941584;29;20206;-73
2021/12/19 03:09:11;;;;;;;6.23;5.73;;;;;;;0.84;83.02;95527.94;4942165;29;20339;-71
2021/12/19 03:19:51;;;;;;;6.37;5.77;;;;;;;0.97;81.96;95535.63;4942215;29;20208;-72
2021/12/19 03:22:18;;;;;;;6.93;6.23;;;;;;;1.01;81.87;95547.31;4942478;28;20716;-71
2021/12/19 03:24:45;;;;;;;7.33;5.77;;;;;;;0.77;82.23;95538.69;4942266;29;20272;-74
2021/12/19 03:27:13;;;;;;;5.87;5.30;;;;;;;0.72;82.99;95538.66;4941893;29;20641;-71
2021/12/19 03:29:40;;;;;;;6.27;5.77;;;;;;;0.67;82.98;95535.25;4941876;29;20818;-72
2021/12/19 03:32:07;;;;;;;6.67;6.07;;;;;;;0.58;82.70;95527.63;4941525;29;20297;-73
2021/12/19 03:34:35;;;;;;;7.13;6.40;;;;;;;0.54;83.17;95530.91;4941736;29;20203;-70
2021/12/19 03:37:02;;;;;;;11.50;6.57;;;;;;;0.32;84.84;95524.81;4941990;29;20206;-73
2021/12/19 03:39:37;;;;;;;5.63;5.13;;;;;;;0.10;85.39;95522.84;4942255;29;20210;-68
2021/12/19 03:42:05;;;;;;;7.13;5.77;;;;;;;-0.04;85.42;95525.16;4942164;29;20269;-70
2021/12/19 03:44:33;;;;;;;7.07;5.80;;;;;;;0.02;86.38;95519.38;4941780;29;20206;-71
2021/12/19 03:47:00;;;;;;;6.83;6.13;;;;;;;0.19;84.57;95517.97;4941924;29;20635;-70
2021/12/19 03:49:27;;;;;;;6.67;5.97;;;;;;;0.22;84.44;95523.03;4942191;29;20270;-69
2021/12/19 03:51:54;;;;;;;8.03;6.27;;;;;;;0.27;84.93;95516.41;4941981;29;20217;-71
2021/12/19 03:54:21;;;;;;;8.00;6.03;;;;;;;0.09;84.98;95519.50;4940822;29;20240;-69
2021/12/19 03:56:48;;;;;;;6.83;6.23;;;;;;;0.03;84.61;95511.06;4940908;29;20198;-68
2021/12/19 03:59:15;;;;;;;9.87;5.87;;;;;;;-0.19;85.74;95494.94;4939940;29;20250;-70
2021/12/19 04:01:49;;;;;;;6.93;6.23;;;;;;;-0.08;86.19;95510.94;4940265;29;21076;-72
2021/12/19 04:04:16;;;;;;;6.87;5.60;;;;;;;0.00;84.19;95507.72;4940265;29;20576;-70
2021/12/19 04:06:42;;;;;;;5.50;5.00;;;;;;;0.03;85.04;95501.91;4940272;29;20199;-69
2021/12/19 04:09:09;;;;;;;6.13;5.57;;;;;;;-0.12;85.13;95496.72;4940455;29;20285;-72
2021/12/19 04:11:36;;;;;;;6.27;5.70;;;;;;;-0.14;85.70;95500.84;4941596;29;20796;-70
2021/12/19 04:14:03;;;;;;;7.40;5.83;;;;;;;-0.24;85.71;95492.38;4941166;29;20207;-68
2021/12/19 04:16:30;;;;;;;7.93;6.27;;;;;;;-0.08;85.29;95488.47;4941981;29;20225;-69
2021/12/19 04:18:58;;;;;;;6.90;6.20;;;;;;;0.04;84.87;95490.28;4942699;28;20206;-67
2021/12/19 04:21:24;;;;;;;6.07;5.33;;;;;;;-0.06;84.48;95485.16;4945038;29;20233;-68
2021/12/19 04:23:51;;;;;;;6.27;5.63;;;;;;;-0.12;85.03;95485.06;4944840;29;20615;-69
2021/12/19 04:26:18;;;;;;;7.00;6.07;;;;;;;-0.05;84.51;95483.50;4944767;29;20830;-70
2021/12/19 04:28:45;;;;;;;9.53;5.77;;;;;;;-0.20;84.46;95481.63;4945282;29;20231;-73
2021/12/19 04:31:12;;;;;;;8.63;5.53;;;;;;;-0.04;84.54;95482.69;4944943;29;20207;-71
2021/12/19 04:33:40;;;;;;;7.00;5.63;;;;;;;0.25;82.52;95478.03;4944551;29;20203;-69
2021/12/19 04:36:11;;;;;;;6.20;5.60;;;;;;;0.08;82.57;95479.50;4945030;29;20206;-71
2021/12/19 04:58:02;;;;;;;5.63;5.23;;;;;;;-0.13;83.61;95455.91;4944033;28;20246;-71
2021/12/19 05:00:36;;;;;;;6.33;5.83;;;;;;;0.35;82.55;95457.34;4944016;29;20213;-72
2021/12/19 05:03:07;;;;;;;8.40;5.77;;;;;;;0.28;81.42;95455.59;4944715;29;20225;-71
2021/12/19 05:05:53;;;;;;;7.50;5.57;;;;;;;0.12;82.25;95458.72;4944397;29;20206;-74
2021/12/19 05:16:35;;;;;;;6.40;5.70;;;;;;;0.36;81.87;95470.69;4944732;29;21039;-72
2021/12/19 05:19:06;;;;;;;6.73;5.67;;;;;;;0.40;81.55;95473.25;4944196;29;20929;-72
2021/12/19 05:21:36;;;;;;;6.43;5.73;;;;;;;0.40;81.98;95470.75;4943999;29;20209;-72
2021/12/19 05:26:47;;;;;;;6.87;6.17;;;;;;;0.29;81.84;95464.78;4941061;28;20286;-71
2021/12/19 05:29:14;;;;;;;6.63;5.53;;;;;;;0.23;82.73;95470.56;4943524;28;20234;-71
2021/12/19 05:31:41;;;;;;;7.93;6.27;;;;;;;0.33;82.52;95466.50;4942694;28;20806;-71
2021/12/19 05:34:08;;;;;;;6.60;5.90;;;;;;;0.45;81.62;95466.66;4943025;29;20270;-74
2021/12/19 05:47:34;;;;;;;16.17;9.53;;;;;;;0.18;82.42;95446.31;4944008;29;20257;-71
2021/12/19 05:50:01;;;;;;;34.50;17.47;;;;;;;0.23;83.33;95464.72;4943524;29;20696;-72
2021/12/19 05:52:27;;;;;;;30.57;16.57;;;;;;;0.32;83.12;95454.81;4943394;28;20213;-73
2021/12/19 05:54:55;;;;;;;17.60;10.33;;;;;;;0.48;82.57;95454.19;4941926;28;20246;-70
2021/12/19 05:57:22;;;;;;;7.40;6.57;;;;;;;0.49;81.32;95448.38;4941864;29;20261;-70
2021/12/19 05:59:50;;;;;;;6.73;6.03;;;;;;;0.43;82.78;95448.28;4940991;29;20226;-71
2021/12/19 06:02:17;;;;;;;7.33;5.70;;;;;;;0.38;83.88;95446.56;4940590;29;20733;-73
2021/12/19 06:04:43;;;;;;;12.37;6.00;;;;;;;0.22;83.01;95443.03;4941482;28;20980;-69
2021/12/19 06:07:10;;;;;;;6.00;5.43;;;;;;;0.09;83.45;95446.19;4941297;29;20645;-72
2021/12/19 06:09:37;;;;;;;5.33;4.93;;;;;;;0.16;83.75;95447.97;4941943;29;20296;-75
2021/12/19 06:12:07;;;;;;;6.23;5.40;;;;;;;0.32;82.43;95442.31;4942903;29;20198;-68
2021/12/19 06:14:34;;;;;;;7.53;6.80;;;;;;;0.44;81.47;95439.13;4942854;29;20583;-72
2021/12/19 06:17:01;;;;;;;5.67;5.13;;;;;;;0.53;82.01;95436.72;4943203;29;20206;-69
2021/12/19 06:19:28;;;;;;;5.23;4.50;;;;;;;0.54;81.12;95426.72;4942332;29;20319;-70
2021/12/19 06:21:55;;;;;;;8.00;6.13;;;;;;;0.74;81.20;95428.63;4941729;28;20775;-69
2021/12/19 06:24:22;;;;;;;135.83;53.50;;;;;;;0.64;80.83;95421.00;4943109;28;20202;-71
2021/12/19 06:26:49;;;;;;;85.60;38.20;;;;;;;0.46;81.47;95423.31;4943581;28;20202;-72
2021/12/19 06:29:17;;;;;;;18.57;9.43;;;;;;;0.52;82.08;95415.88;4942280;29;20309;-72
2021/12/19 06:31:44;;;;;;;9.10;5.80;;;;;;;0.33;81.84;95411.50;4942486;29;20198;-73
2021/12/19 06:34:11;;;;;;;8.40;6.53;;;;;;;0.33;81.95;95419.00;4942861;29;20269;-73
2021/12/19 06:36:40;;;;;;;7.33;6.17;;;;;;;0.44;81.93;95414.97;4942724;29;20210;-70
2021/12/19 06:39:06;;;;;;;6.50;5.73;;;;;;;0.52;81.24;95418.38;4942850;28;20234;-67
2021/12/19 06:41:35;;;;;;;6.80;6.20;;;;;;;0.53;81.24;95415.03;4941897;28;20262;-69
2021/12/19 06:44:02;;;;;;;6.83;6.17;;;;;;;0.50;81.73;95414.16;4942430;29;20778;-73
2021/12/19 06:46:31;;;;;;;11.57;7.00;;;;;;;0.61;80.49;95408.47;4942802;29;20206;-72
2021/12/19 06:48:58;;;;;;;6.90;6.20;;;;;;;0.75;80.49;95417.75;4942376;28;20257;-70
2021/12/19 06:51:25;;;;;;;7.60;6.77;;;;;;;0.88;79.51;95415.41;4942341;28;20214;-73
2021/12/19 06:53:52;;;;;;;6.53;5.67;;;;;;;0.82;79.66;95407.00;4942510;29;20234;-70
2021/12/19 06:56:19;;;;;;;6.77;6.13;;;;;;;0.95;80.83;95413.81;4942725;29;20636;-69
2021/12/19 06:58:46;;;;;;;6.20;5.60;;;;;;;1.11;80.01;95405.59;4942605;29;20277;-73
2021/12/19 07:01:13;;;;;;;11.60;7.63;;;;;;;1.48;79.14;95406.72;4942479;29;20207;-73
2021/12/19 07:03:41;;;;;;;8.30;6.70;;;;;;;2.50;76.31;95404.66;4942216;29;20203;-74
2021/12/19 07:06:08;;;;;;;10.03;7.07;;;;;;;4.62;69.09;95407.78;4942144;29;20654;-71
2021/12/19 07:08:34;;;;;;;8.63;6.77;;;;;;;6.73;60.58;95392.38;4942139;29;20245;-72
2021/12/19 07:11:01;;;;;;;9.57;6.40;;;;;;;8.71;54.40;95388.97;4940711;29;20202;-71
2021/12/19 07:13:28;;;;;;;7.40;6.40;;;;;;;9.21;51.96;95389.56;4942057;29;20206;-73
2021/12/19 07:15:57;;;;;;;8.75;6.35;;;;;;;10.20;48.91;95377.78;4942161;29;20601;-72
2021/12/19 07:18:24;;;;;;;6.90;6.30;;;;;;;10.61;48.19;95380.91;4942023;29;20641;-71
2021/12/19 07:20:52;;;;;;;6.30;5.73;;;;;;;9.87;49.29;95381.19;4942738;29;20198;-70
2021/12/19 07:23:21;;;;;;;6.97;5.25;;;;;;;8.58;51.36;95369.84;4942029;28;20237;-74
2021/12/19 07:25:48;;;;;;;15.35;9.43;;;;;;;8.32;53.77;95374.56;4941994;29;20203;-72
2021/12/19 07:28:15;;;;;;;10.43;7.00;;;;;;;8.15;53.55;95370.69;4941991;29;20266;-70
2021/12/19 07:30:43;;;;;;;6.80;6.10;;;;;;;7.15;54.76;95372.44;4941465;29;20289;-72
2021/12/19 07:33:12;;;;;;;8.80;6.80;;;;;;;5.61;59.31;95383.56;4939903;29;20206;-72
2021/12/19 07:35:42;;;;;;;9.43;6.90;;;;;;;4.76;62.25;95385.03;4939554;29;20206;-73
2021/12/19 07:38:16;;;;;;;13.87;7.47;;;;;;;4.13;65.99;95376.13;4939984;29;20297;-69
2021/12/19 07:40:46;;;;;;;10.40;6.53;;;;;;;3.72;66.30;95377.09;4940539;28;20234;-73
2021/12/19 07:43:14;;;;;;;11.17;6.70;;;;;;;3.75;67.24;95377.91;4941141;29;20194;-73
2021/12/19 07:45:41;;;;;;;6.00;5.43;;;;;;;3.70;67.25;95379.63;4941091;29;20207;-73
2021/12/19 07:48:08;;;;;;;6.63;6.03;;;;;;;3.67;67.01;95376.28;4942123;29;20700;-69
2021/12/19 07:50:35;;;;;;;7.37;5.77;;;;;;;3.48;67.76;95379.63;4942122;29;20226;-73
2021/12/19 07:53:03;;;;;;;7.90;6.57;;;;;;;3.53;68.78;95370.44;4943119;28;20670;-72
2021/12/19 07:55:32;;;;;;;8.00;6.07;;;;;;;3.37;69.35;95375.47;4945565;29;20210;-73
2021/12/19 07:57:59;;;;;;;9.13;6.10;;;;;;;3.40;69.27;95372.97;4945275;29;20210;-70
2021/12/19 08:00:25;;;;;;;8.43;6.90;;;;;;;3.50;69.32;95373.78;4945143;29;20663;-69
2021/12/19 08:02:52;;;;;;;9.37;7.00;;;;;;;3.50;68.38;95370.44;4944704;29;20253;-70
2021/12/19 08:05:22;;;;;;;8.67;6.67;;;;;;;3.51;67.96;95364.56;4944850;29;20206;-72
2021/12/19 08:07:55;;;;;;;9.00;7.07;;;;;;;3.40;70.18;95362.09;4945278;29;20210;-69
2021/12/19 08:13:10;;;;;;;7.70;6.90;;;;;;;3.30;69.52;95351.19;4944551;29;20746;-71
2021/12/19 08:15:38;;;;;;;7.73;6.83;;;;;;;3.29;69.25;95338.63;4944122;29;20213;-72
2021/12/19 08:18:06;;;;;;;9.67;6.60;;;;;;;3.44;69.50;95332.78;4945037;29;20309;-71
2021/12/19 08:20:34;;;;;;;8.13;6.90;;;;;;;3.39;68.43;95323.56;4945011;29;20234;-72
2021/12/19 08:23:00;;;;;;;9.03;7.33;;;;;;;3.31;68.99;95326.91;4944089;29;20336;-71
2021/12/19 08:25:29;;;;;;;10.40;6.70;;;;;;;3.08;69.51;95319.41;4944544;29;20207;-74
2021/12/19 08:27:57;;;;;;;9.17;6.43;;;;;;;3.19;69.61;95317.75;4944493;29;20202;-76
2021/12/19 08:30:27;;;;;;;7.57;6.83;;;;;;;3.23;69.26;95311.84;4944123;29;20240;-71
2021/12/19 08:32:56;;;;;;;8.13;5.70;;;;;;;3.20;69.24;95309.38;4944623;29;20214;-68
2021/12/19 08:35:23;;;;;;;7.87;7.03;;;;;;;3.18;69.77;95313.56;4945287;28;20206;-73
2021/12/19 08:37:49;;;;;;;7.67;6.97;;;;;;;3.08;69.47;95319.41;4945052;29;20264;-71
2021/12/19 08:40:16;;;;;;;10.63;6.47;;;;;;;3.28;69.25;95327.75;4944452;29;20202;-71
2021/12/19 08:42:43;;;;;;;11.50;7.33;;;;;;;3.20;69.93;95319.41;4943974;29;20209;-69
2021/12/19 08:45:10;;;;;;;16.13;9.80;;;;;;;2.89;70.73;95320.25;4944107;29;20198;-73
2021/12/19 08:47:39;;;;;;;35.10;18.23;;;;;;;2.79;72.04;95321.09;4943689;29;20262;-75
2021/12/19 08:50:08;;;;;;;14.50;8.90;;;;;;;2.88;71.05;95316.06;4944109;29;20681;-71
2021/12/19 08:52:35;;;;;;;8.77;6.67;;;;;;;2.94;70.11;95323.63;4943784;29;20611;-75
2021/12/19 08:55:02;;;;;;;11.73;6.57;;;;;;;2.77;71.72;95320.25;4943825;29;20266;-68
2021/12/19 08:57:29;;;;;;;8.60;6.83;;;;;;;2.44;71.85;95318.56;4943578;29;20612;-72
2021/12/19 08:59:57;;;;;;;9.23;7.13;;;;;;;2.55;72.37;95317.72;4943995;29;20293;-75
2021/12/19 09:02:25;;;;;;;10.30;8.20;;;;;;;2.52;72.32;95312.69;4940711;29;20207;-72
2021/12/19 09:04:54;;;;;;;10.83;8.17;;;;;;;2.67;72.45;95315.25;4942587;28;20206;-70
2021/12/19 09:07:20;;;;;;;11.07;7.77;;;;;;;2.82;71.73;95316.06;4942988;29;20205;-73
2021/12/19 09:09:48;;;;;;;9.40;7.70;;;;;;;2.68;72.31;95313.56;4941328;29;20226;-70
2021/12/19 09:12:15;;;;;;;11.47;8.03;;;;;;;2.62;72.43;95308.53;4942003;29;20213;-73
2021/12/19 09:14:42;;;;;;;14.07;8.13;;;;;;;2.65;71.71;95306.88;4942095;29;20677;-71
2021/12/19 09:17:08;;;;;;;10.13;7.30;;;;;;;2.68;72.66;95301.03;4941062;29;20202;-72
2021/12/19 09:19:35;;;;;;;11.23;8.23;;;;;;;2.73;72.23;95300.16;4940810;29;20194;-72
2021/12/19 09:22:04;;;;;;;9.73;8.67;;;;;;;2.72;72.00;95287.66;4940589;29;20785;-72
2021/12/19 09:24:31;;;;;;;10.87;8.00;;;;;;;2.67;73.28;95292.66;4941733;29;20206;-68
2021/12/19 09:26:58;;;;;;;20.90;12.90;;;;;;;2.63;73.38;95283.44;4941647;29;20676;-73
2021/12/19 09:29:28;;;;;;;9.73;7.63;;;;;;;2.64;72.86;95279.28;4941938;29;20302;-72
2021/12/19 09:31:56;;;;;;;43.53;20.90;;;;;;;2.42;73.36;95270.06;4942778;29;20213;-69
2021/12/19 09:34:23;;;;;;;12.70;9.00;;;;;;;2.69;73.74;95268.41;4943677;29;20217;-74
2021/12/19 09:36:50;;;;;;;11.10;7.70;;;;;;;2.69;72.55;95270.06;4943263;29;20210;-71
2021/12/19 09:39:19;;;;;;;12.47;7.80;;;;;;;2.77;72.69;95260.84;4943975;28;20206;-72
2021/12/19 09:41:48;;;;;;;9.43;7.53;;;;;;;2.73;73.20;95267.53;4943391;29;20217;-74
2021/12/19 09:44:16;;;;;;;11.90;8.33;;;;;;;2.86;73.36;95263.38;4943209;28;20211;-69
2021/12/19 09:46:44;;;;;;;14.87;7.90;;;;;;;2.60;74.14;95250.81;4943361;28;20207;-70
2021/12/19 09:49:14;;;;;;;10.60;7.53;;;;;;;2.65;74.58;95248.31;4943166;29;20206;-73
2021/12/19 09:51:42;;;;;;;13.43;7.93;;;;;;;2.56;74.73;95249.16;4943235;29;20216;-73
2021/12/19 09:54:11;;;;;;;9.50;7.77;;;;;;;2.58;74.96;95246.63;4943099;28;20206;-71
2021/12/19 09:56:41;;;;;;;13.10;9.50;;;;;;;2.68;75.01;95233.28;4943383;29;20590;-75
2021/12/19 09:59:11;;;;;;;9.77;8.70;;;;;;;2.78;75.46;95229.06;4943240;29;20211;-75
2021/12/19 10:01:38;;;;;;;12.10;9.30;;;;;;;2.85;74.56;95226.56;4943126;29;20202;-73
2021/12/19 10:04:05;;;;;;;12.43;9.13;;;;;;;2.91;74.52;95210.66;4943130;29;20206;-72
2021/12/19 10:06:33;;;;;;;9.57;7.70;;;;;;;2.88;74.17;95205.63;4943285;29;20210;-70
2021/12/19 10:09:15;;;;;;;16.13;8.77;;;;;;;2.82;74.73;95203.97;4942911;28;20569;-73
2021/12/19 10:11:58;;;;;;;16.20;9.17;;;;;;;2.83;74.32;95200.63;4942326;29;20700;-70
2021/12/19 10:14:28;;;;;;;11.00;8.43;;;;;;;2.79;75.51;95205.63;4942321;29;20221;-68
2021/12/19 10:16:55;;;;;;;11.47;9.00;;;;;;;2.78;75.09;95201.47;4942614;28;20213;-71
2021/12/19 10:19:22;;;;;;;12.87;9.37;;;;;;;2.81;74.88;95193.94;4942387;29;20261;-70
2021/12/19 10:21:48;;;;;;;13.60;9.30;;;;;;;2.93;74.94;95189.72;4942020;29;20210;-69
2021/12/19 10:24:31;;;;;;;9.60;8.57;;;;;;;2.97;75.33;95183.84;4941286;29;20257;-69
2021/12/19 10:27:00;;;;;;;10.10;8.50;;;;;;;3.05;75.46;95173.78;4941914;29;20214;-70
2021/12/19 10:29:43;;;;;;;13.57;9.07;;;;;;;2.86;76.12;95187.22;4941985;29;20230;-72
2021/12/19 10:32:10;;;;;;;10.23;8.20;;;;;;;2.68;76.51;95175.56;4941831;29;20206;-72
2021/12/19 10:34:37;;;;;;;11.53;8.57;;;;;;;2.61;77.62;95179.75;4942670;29;20203;-70
2021/12/19 10:37:05;;;;;;;13.77;10.13;;;;;;;2.61;77.69;95169.72;4942044;28;20210;-72
2021/12/19 10:39:37;;;;;;;13.23;9.50;;;;;;;2.64;78.29;95163.84;4942326;29;20909;-74
2021/12/19 10:42:08;;;;;;;14.07;8.80;;;;;;;2.72;77.97;95160.47;4942291;29;20637;-74
2021/12/19 10:47:24;;;;;;;9.93;8.43;;;;;;;2.84;77.93;95158.78;4940475;29;20206;-71
2021/12/19 10:49:51;;;;;;;11.90;8.53;;;;;;;2.72;78.35;95157.97;4940144;29;20246;-74
2021/12/19 10:52:33;;;;;;;16.03;10.17;;;;;;;2.56;79.09;95153.81;4940619;29;20209;-73
2021/12/19 10:55:01;;;;;;;10.70;8.97;;;;;;;2.58;79.01;95137.09;4941831;29;20746;-75
2021/12/19 10:57:35;;;;;;;10.30;8.90;;;;;;;2.64;78.18;95144.63;4941745;29;20740;-78
2021/12/19 11:00:06;;;;;;;13.10;9.70;;;;;;;2.70;78.38;95146.28;4942676;29;20206;-73
2021/12/19 11:02:38;;;;;;;13.50;9.23;;;;;;;2.66;78.67;95139.59;4942375;29;20583;-73
2021/12/19 11:05:06;;;;;;;13.60;9.47;;;;;;;2.66;77.39;95120.38;4942241;29;20210;-73
2021/12/19 11:07:33;;;;;;;17.73;11.77;;;;;;;2.68;77.50;95126.22;4942239;29;20380;-71
2021/12/19 11:10:00;;;;;;;13.67;9.77;;;;;;;2.59;78.64;95123.72;4941963;28;20234;-73
2021/12/19 11:12:27;;;;;;;16.53;10.77;;;;;;;2.71;77.89;95115.34;4941901;29;20203;-75
2021/12/19 11:14:55;;;;;;;14.83;9.43;;;;;;;2.84;77.18;95113.63;4941905;28;20206;-73
2021/12/19 11:17:26;;;;;;;14.43;9.80;;;;;;;2.73;76.52;95096.91;4941814;29;20301;-72
2021/12/19 11:19:54;;;;;;;13.73;8.77;;;;;;;2.67;76.24;95099.44;4941760;29;20284;-72
2021/12/19 11:22:24;;;;;;;10.67;8.63;;;;;;;2.70;75.69;95096.94;4941719;29;20241;-71
2021/12/19 11:24:52;;;;;;;11.87;8.47;;;;;;;2.52;76.68;95098.63;4940775;29;20213;-72
2021/12/19 11:27:19;;;;;;;12.07;8.30;;;;;;;2.62;76.83;95088.59;4941471;28;20206;-71
2021/12/19 11:29:48;;;;;;;10.00;8.37;;;;;;;2.66;76.02;95094.44;4945730;29;20345;-74
2021/12/19 11:32:19;;;;;;;12.27;8.20;;;;;;;2.68;75.57;95083.56;4945819;29;20210;-75
2021/12/19 11:35:01;;;;;;;11.03;7.90;;;;;;;2.60;75.28;95094.44;4945456;29;20280;-71
2021/12/19 11:37:33;;;;;;;10.73;8.70;;;;;;;2.73;75.46;95091.88;4945281;29;20740;-74
2021/12/19 11:40:00;;;;;;;20.13;12.27;;;;;;;2.63;75.61;95097.78;4945558;28;20210;-70
2021/12/19 11:42:31;;;;;;;12.80;10.37;;;;;;;2.61;75.14;95096.97;4945930;28;20214;-72
2021/12/19 11:45:12;;;;;;;16.90;10.17;;;;;;;2.71;76.59;95088.56;4945786;28;20213;-76
2021/12/19 11:47:47;;;;;;;11.87;8.90;;;;;;;3.00;75.56;95075.06;4945445;29;20207;-71
2021/12/19 11:50:21;;;;;;;11.53;9.33;;;;;;;2.93;75.56;95064.22;4945273;29;20237;-72
2021/12/19 11:52:48;;;;;;;14.33;10.03;;;;;;;3.16;80.49;95064.13;4945395;29;20291;-67
2021/12/19 11:55:27;;;;;;;14.43;9.60;;;;;;;3.86;80.08;95058.63;4945463;28;20210;-75
2021/12/19 11:58:19;;;;;;;16.30;10.30;;;;;;;3.91;74.48;95054.41;4945374;29;20535;-74
2021/12/19 12:00:54;;;;;;;10.93;8.37;;;;;;;3.66;74.66;95055.44;4942526;28;20226;-74
2021/12/19 12:03:25;;;;;;;12.17;9.43;;;;;;;3.51;75.00;95053.84;4945646;29;20265;-73
2021/12/19 12:05:54;;;;;;;14.97;9.37;;;;;;;3.38;75.27;95045.56;4945039;29;20265;-75
2021/12/19 12:08:22;;;;;;;15.17;10.00;;;;;;;3.24;75.84;95044.81;4945506;29;20198;-72
2021/12/19 12:11:18;;;;;;;16.07;10.57;;;;;;;3.25;76.26;95033.09;4945291;29;20234;-71
2021/12/19 12:13:45;;;;;;;14.60;9.83;;;;;;;3.19;75.66;95033.97;4904681;29;20303;-73
2021/12/19 12:16:43;;;;;;;14.03;9.67;;;;;;;3.09;75.99;95029.84;4936153;28;20274;-70
2021/12/19 12:19:12;;;;;;;11.23;8.73;;;;;;;2.91;76.41;95029.94;4933802;28;20202;-74
2021/12/19 12:21:43;;;;;;;17.90;10.33;;;;;;;2.91;77.25;95022.41;4944395;29;20213;-75
2021/12/19 12:24:17;;;;;;;10.07;8.90;;;;;;;3.01;76.48;95021.50;4944524;28;20210;-73
2021/12/19 12:26:56;;;;;;;18.27;10.60;;;;;;;2.83;76.81;95014.91;4944728;29;20215;-72
2021/12/19 12:29:24;;;;;;;13.50;9.70;;;;;;;2.82;75.91;95000.69;4944682;29;20198;-74
2021/12/19 12:31:52;;;;;;;12.50;9.93;;;;;;;2.71;76.17;94998.25;4944172;29;20723;-75
2021/12/19 12:34:21;;;;;;;17.23;10.43;;;;;;;2.60;77.24;95004.97;4944280;29;20265;-75
2021/12/19 12:36:49;;;;;;;14.37;8.37;;;;;;;2.57;77.11;94991.59;4944061;29;20333;-74
2021/12/19 12:39:20;;;;;;;13.80;9.80;;;;;;;2.60;76.28;94984.91;4942745;28;20206;-74
2021/12/19 12:42:00;;;;;;;17.37;11.10;;;;;;;2.70;77.29;94978.19;4942949;29;20654;-70
2021/12/19 12:44:27;;;;;;;15.23;9.57;;;;;;;2.76;77.41;94974.78;4941829;29;20686;-74
2021/12/19 12:46:54;;;;;;;12.30;9.27;;;;;;;2.85;75.53;94977.25;4942807;29;20207;-76
2021/12/19 12:49:25;;;;;;;14.50;8.97;;;;;;;2.89;74.71;94968.88;4943653;29;20207;-73
2021/12/19 12:52:02;;;;;;;16.47;10.07;;;;;;;2.62;75.88;94955.63;4943458;29;20787;-72
2021/12/19 12:54:34;;;;;;;11.70;8.57;;;;;;;2.81;75.50;94960.53;4943990;28;20296;-74
2021/12/19 12:57:05;;;;;;;14.63;9.37;;;;;;;2.85;75.43;94954.66;4943607;29;20240;-73
2021/12/19 12:59:35;;;;;;;12.70;8.87;;;;;;;2.81;75.43;94945.47;4943780;29;20210;-72